Time;durP1;ratioP1;P1;durP2;ratioP2;P2;SDS_P1;SDS_P2;PMS_P1;PMS_P2;Temp;Humidity;BMP_temperature;BMP_pressure;BME280_temperature;BME280_humidity;BME280_pressure;Samples;Min_cycle;Max_cycle;Signal;HPM_P1;HPM_P2
2021/01/15 00:01:42;;;;;;;4.10;3.63;;;;;;;1.93;49.53;93289.22;4959311;28;20468;-75
2021/01/15 00:04:08;;;;;;;3.95;3.55;;;;;;;2.02;49.80;93292.94;4965335;28;20027;-75
2021/01/15 00:06:33;;;;;;;3.60;3.30;;;;;;;2.08;49.85;93293.78;4958270;28;20097;-75
2021/01/15 00:08:59;;;;;;;5.30;4.03;;;;;;;1.97;49.86;93298.13;4949862;28;20527;-75
2021/01/15 00:11:30;;;;;;;4.30;3.90;;;;;;;2.07;49.94;93300.03;4962201;28;20520;-75
2021/01/15 00:13:56;;;;;;;4.57;4.00;;;;;;;2.01;50.00;93299.19;4962161;28;20042;-78
2021/01/15 00:16:26;;;;;;;6.78;4.25;;;;;;;2.03;50.39;93309.38;4963823;28;20323;-75
2021/01/15 00:18:53;;;;;;;4.15;3.67;;;;;;;2.08;50.38;93314.63;4958362;28;20105;-75
2021/01/15 00:21:27;;;;;;;5.15;4.07;;;;;;;2.03;50.28;93310.16;4965472;28;20034;-75
2021/01/15 00:23:55;;;;;;;5.33;4.07;;;;;;;2.01;50.41;93303.59;4956296;28;20058;-75
2021/01/15 00:26:22;;;;;;;6.88;3.60;;;;;;;2.01;50.40;93301.78;4955888;28;20339;-75
2021/01/15 00:28:49;;;;;;;4.40;4.00;;;;;;;2.00;50.26;93300.25;4959184;28;20034;-76
2021/01/15 00:31:15;;;;;;;4.65;4.25;;;;;;;1.94;50.43;93301.22;4963587;28;20529;-77
2021/01/15 00:33:40;;;;;;;5.82;4.28;;;;;;;1.91;50.23;93304.31;4958725;28;20049;-75
2021/01/15 00:36:07;;;;;;;4.57;3.92;;;;;;;1.87;50.54;93308.44;4961313;28;20121;-77
2021/01/15 00:38:33;;;;;;;4.82;4.05;;;;;;;1.70;51.11;93299.97;4961863;28;20034;-75
2021/01/15 00:41:01;;;;;;;5.45;4.00;;;;;;;1.79;50.71;93310.72;4960522;28;20140;-77
2021/01/15 00:43:27;;;;;;;5.60;4.28;;;;;;;1.85;50.98;93310.53;4964010;28;20029;-76
2021/01/15 00:45:52;;;;;;;5.10;4.22;;;;;;;1.81;50.78;93330.25;4954574;28;20407;-77
2021/01/15 00:48:18;;;;;;;7.50;5.32;;;;;;;1.79;51.17;93311.50;4964114;28;20035;-77
2021/01/15 00:50:43;;;;;;;5.53;4.88;;;;;;;1.81;50.53;93319.84;4958923;28;20039;-76
2021/01/15 00:53:09;;;;;;;5.03;4.50;;;;;;;1.85;50.79;93320.16;4958552;28;20046;-76
2021/01/15 00:55:34;;;;;;;7.45;5.03;;;;;;;1.83;50.75;93315.19;4955663;28;20023;-76
2021/01/15 00:58:01;;;;;;;4.70;4.30;;;;;;;1.81;50.56;93330.25;4979580;28;20030;-75
2021/01/15 01:00:27;;;;;;;5.63;4.30;;;;;;;1.86;50.64;93339.97;4965828;28;20853;-75
2021/01/15 01:02:52;;;;;;;4.85;4.15;;;;;;;1.73;50.30;93317.69;4956870;28;20061;-77
2021/01/15 01:05:21;;;;;;;4.93;4.18;;;;;;;1.82;50.62;93341.47;4962185;28;20038;-77
2021/01/15 01:07:47;;;;;;;4.88;4.38;;;;;;;1.78;51.00;93340.41;4958960;28;20155;-77
2021/01/15 01:10:13;;;;;;;4.57;4.03;;;;;;;1.78;50.70;93351.59;4963891;28;20041;-77
2021/01/15 01:12:40;;;;;;;4.90;4.28;;;;;;;1.72;50.98;93342.94;4963993;28;20051;-77
2021/01/15 01:15:07;;;;;;;4.55;4.07;;;;;;;1.71;50.44;93343.97;4960663;28;20035;-77
2021/01/15 01:17:32;;;;;;;5.93;4.03;;;;;;;1.81;49.71;93343.28;4962368;28;20073;-76
2021/01/15 01:19:58;;;;;;;4.35;3.95;;;;;;;1.91;49.64;93347.81;4963822;28;20512;-77
2021/01/15 01:22:23;;;;;;;4.60;4.18;;;;;;;1.90;49.31;93357.47;4961251;28;20096;-77
2021/01/15 01:24:48;;;;;;;4.70;4.30;;;;;;;1.99;49.28;93358.59;4958886;28;20495;-77
2021/01/15 01:27:14;;;;;;;4.85;3.97;;;;;;;1.96;49.07;93353.88;4961717;28;20047;-76
2021/01/15 01:29:40;;;;;;;5.90;3.95;;;;;;;1.91;49.44;93342.59;4959889;28;20562;-76
2021/01/15 01:32:05;;;;;;;7.30;4.97;;;;;;;1.83;49.53;93314.41;4963064;28;20282;-77
2021/01/15 01:34:30;;;;;;;4.68;4.22;;;;;;;1.94;49.34;93342.91;4962750;28;20081;-76
2021/01/15 01:36:56;;;;;;;5.60;3.80;;;;;;;2.05;49.05;93336.75;4956979;28;20810;-76
2021/01/15 01:39:21;;;;;;;5.30;4.28;;;;;;;1.95;48.96;93341.09;4961548;28;20140;-74
2021/01/15 01:41:47;;;;;;;6.03;4.00;;;;;;;2.02;48.98;93354.69;4954222;28;20047;-75
2021/01/15 01:44:12;;;;;;;4.55;4.15;;;;;;;2.06;48.96;93348.75;4964823;28;20551;-75
2021/01/15 01:46:38;;;;;;;6.85;4.97;;;;;;;2.10;48.57;93352.44;4959667;28;20034;-75
2021/01/15 01:49:04;;;;;;;4.97;4.47;;;;;;;2.14;48.62;93361.34;4963316;28;20030;-78
2021/01/15 01:51:30;;;;;;;4.88;4.38;;;;;;;2.08;48.99;93364.94;4961674;28;20104;-76
2021/01/15 01:53:56;;;;;;;4.30;3.90;;;;;;;2.17;49.21;93379.09;4957552;28;20046;-76
2021/01/15 01:56:22;;;;;;;5.97;4.88;;;;;;;2.17;49.43;93365.28;4962135;28;20046;-76
2021/01/15 01:58:48;;;;;;;6.35;5.57;;;;;;;2.13;49.43;93353.78;4962581;28;20479;-76
2021/01/15 02:01:17;;;;;;;7.93;4.78;;;;;;;2.13;49.26;93357.16;4963058;28;20022;-76
2021/01/15 02:03:42;;;;;;;5.15;4.30;;;;;;;2.21;49.42;93365.56;4960308;28;20038;-75
2021/01/15 02:06:13;;;;;;;4.93;4.45;;;;;;;2.28;49.19;93366.16;4967002;28;20500;-75
2021/01/15 02:08:39;;;;;;;4.80;4.30;;;;;;;2.28;49.26;93361.72;4960876;28;20046;-76
2021/01/15 02:11:11;;;;;;;5.95;4.78;;;;;;;2.11;49.72;93348.00;4962955;28;20034;-76
2021/01/15 02:14:04;;;;;;;6.22;4.55;;;;;;;2.15;49.72;93352.47;4957375;28;20045;-77
2021/01/15 02:16:30;;;;;;;9.27;4.90;;;;;;;2.12;49.81;93346.97;4960452;28;20057;-76
2021/01/15 02:19:28;;;;;;;5.28;4.78;;;;;;;1.99;50.52;93363.03;4960839;28;20054;-75
2021/01/15 02:22:15;;;;;;;5.25;4.75;;;;;;;1.93;51.02;93370.00;4963222;28;20549;-76
2021/01/15 02:24:59;;;;;;;5.75;5.20;;;;;;;1.84;51.08;93361.06;4962350;28;20113;-76
2021/01/15 02:27:58;;;;;;;8.38;5.40;;;;;;;1.90;51.25;93361.91;4965917;28;20138;-76
2021/01/15 02:30:52;;;;;;;5.50;4.97;;;;;;;1.80;51.46;93370.41;4957362;28;20090;-77
2021/01/15 02:33:24;;;;;;;5.93;5.32;;;;;;;1.79;51.64;93379.22;4963255;28;20515;-77
2021/01/15 02:35:58;;;;;;;6.32;5.30;;;;;;;1.72;51.46;93373.41;4958917;28;20058;-76
2021/01/15 02:38:40;;;;;;;5.63;4.78;;;;;;;1.74;51.34;93369.56;4961435;28;20093;-77
2021/01/15 02:41:22;;;;;;;5.88;5.28;;;;;;;1.86;51.00;93376.44;4961770;28;20495;-77
2021/01/15 02:43:59;;;;;;;6.63;5.10;;;;;;;1.79;51.14;93381.84;4959890;28;20027;-76
2021/01/15 02:46:32;;;;;;;6.40;5.07;;;;;;;1.79;51.19;93387.06;4961684;28;20034;-77
2021/01/15 02:49:00;;;;;;;5.30;4.80;;;;;;;1.74;50.74;93377.38;4958853;28;20043;-77
2021/01/15 02:51:28;;;;;;;6.38;5.32;;;;;;;1.64;50.68;93371.25;4964134;28;20118;-77
2021/01/15 02:53:54;;;;;;;6.65;4.95;;;;;;;1.77;50.64;93383.09;4958662;28;25122;-77
2021/01/15 02:56:19;;;;;;;7.75;5.65;;;;;;;1.62;50.80;93375.91;4961152;28;20122;-75
2021/01/15 02:58:47;;;;;;;5.80;5.28;;;;;;;1.66;51.17;93383.00;4956603;28;20834;-75
2021/01/15 03:01:13;;;;;;;7.93;5.35;;;;;;;1.67;51.04;93381.97;4962594;28;20045;-76
2021/01/15 03:03:49;;;;;;;6.63;5.13;;;;;;;1.64;50.94;93381.66;4966777;28;20495;-76
2021/01/15 03:06:37;;;;;;;5.32;4.82;;;;;;;1.73;50.65;93390.63;4966415;28;20668;-75
2021/01/15 03:09:05;;;;;;;7.05;5.30;;;;;;;1.63;51.16;93388.69;4977955;28;20117;-75
2021/01/15 03:11:32;;;;;;;5.40;4.88;;;;;;;1.66;50.78;93384.84;4965897;28;20053;-77
2021/01/15 03:13:59;;;;;;;6.72;5.15;;;;;;;1.75;50.80;93399.00;4964145;28;20066;-75
2021/01/15 03:16:26;;;;;;;6.78;4.78;;;;;;;1.83;50.72;93401.16;4967638;28;24793;-76
2021/01/15 03:18:55;;;;;;;6.70;5.68;;;;;;;1.81;51.08;93416.22;4964766;28;20102;-74
2021/01/15 03:21:20;;;;;;;5.97;5.43;;;;;;;1.89;51.01;93415.81;4967155;28;20592;-75
2021/01/15 03:23:46;;;;;;;7.30;5.55;;;;;;;2.00;50.61;93404.47;4961693;28;20108;-77
2021/01/15 03:26:13;;;;;;;5.57;5.00;;;;;;;2.07;50.52;93401.66;4965671;28;20047;-77
2021/01/15 03:28:39;;;;;;;5.32;4.82;;;;;;;2.10;50.50;93391.53;4969614;28;20065;-76
2021/01/15 03:31:05;;;;;;;7.63;5.72;;;;;;;2.08;50.72;93401.44;4962525;28;20134;-76
2021/01/15 03:33:30;;;;;;;8.30;5.82;;;;;;;2.10;50.87;93396.75;4964816;28;20041;-76
2021/01/15 03:35:55;;;;;;;5.68;5.10;;;;;;;2.09;50.94;93392.59;4962932;28;20065;-76
2021/01/15 03:38:21;;;;;;;7.82;5.55;;;;;;;2.15;50.68;93394.19;4966941;28;20395;-76
2021/01/15 03:40:47;;;;;;;6.47;5.80;;;;;;;2.14;50.73;93392.63;4965119;28;20034;-76
2021/01/15 03:43:16;;;;;;;6.57;5.63;;;;;;;2.08;50.86;93393.59;4965449;28;20080;-76
2021/01/15 03:45:43;;;;;;;8.00;5.53;;;;;;;2.13;51.01;93400.69;4959317;28;20039;-75
2021/01/15 03:48:09;;;;;;;7.47;5.75;;;;;;;2.24;51.13;93412.00;4963198;28;20058;-75
2021/01/15 03:50:38;;;;;;;7.72;5.82;;;;;;;2.22;50.71;93403.63;4968795;28;20034;-75
2021/01/15 03:53:04;;;;;;;7.15;6.15;;;;;;;2.23;50.76;93405.22;4962026;28;20034;-74
2021/01/15 03:55:31;;;;;;;6.75;5.80;;;;;;;2.18;50.67;93401.53;4964944;28;20053;-75
2021/01/15 03:57:56;;;;;;;9.52;6.32;;;;;;;2.17;50.67;93402.56;4962346;28;20042;-75
2021/01/15 04:00:22;;;;;;;6.00;5.13;;;;;;;2.20;51.03;93401.25;4962540;28;20117;-75
2021/01/15 04:02:47;;;;;;;7.85;5.10;;;;;;;2.18;50.93;93393.72;4959032;28;20121;-75
2021/01/15 04:05:16;;;;;;;10.02;6.22;;;;;;;2.24;50.96;93401.56;4966037;28;20047;-75
2021/01/15 04:07:42;;;;;;;6.78;5.47;;;;;;;2.32;50.63;93401.13;4961206;28;20096;-75
2021/01/15 04:10:10;;;;;;;6.72;5.35;;;;;;;2.40;50.53;93411.09;4967492;28;20506;-75
2021/01/15 04:12:37;;;;;;;7.55;6.78;;;;;;;2.38;50.64;93421.78;4963054;28;20125;-75
2021/01/15 04:15:05;;;;;;;8.18;5.75;;;;;;;2.42;50.51;93419.47;4959464;28;20065;-76
2021/01/15 04:17:30;;;;;;;6.30;5.70;;;;;;;2.41;50.29;93418.69;4963975;28;20517;-75
2021/01/15 04:19:55;;;;;;;5.82;5.25;;;;;;;2.38;50.25;93421.00;4962143;28;20039;-75
2021/01/15 04:22:21;;;;;;;7.20;5.55;;;;;;;2.37;50.33;93432.47;4959458;28;20026;-75
2021/01/15 04:24:46;;;;;;;6.20;4.97;;;;;;;2.39;50.34;93436.41;4962135;28;20050;-75
2021/01/15 04:27:12;;;;;;;6.40;5.40;;;;;;;2.27;50.40;93438.38;4959770;28;20457;-74
2021/01/15 04:29:37;;;;;;;5.85;5.00;;;;;;;2.26;50.46;93438.59;4960208;28;20039;-75
2021/01/15 04:32:03;;;;;;;6.20;5.32;;;;;;;2.21;50.52;93430.72;4964466;28;20055;-75
2021/01/15 04:34:30;;;;;;;6.40;5.78;;;;;;;2.30;50.58;93431.88;4971925;28;20040;-75
2021/01/15 04:36:56;;;;;;;5.57;5.00;;;;;;;2.28;50.19;93432.13;4962021;28;20629;-75
2021/01/15 04:39:22;;;;;;;9.57;6.97;;;;;;;2.29;50.49;93435.53;4964992;28;20038;-75
2021/01/15 04:41:48;;;;;;;8.73;6.60;;;;;;;2.32;50.20;93445.44;4962178;28;20042;-75
2021/01/15 04:44:14;;;;;;;13.80;8.15;;;;;;;2.29;51.02;93446.75;4960971;28;20042;-75
2021/01/15 04:46:41;;;;;;;8.05;6.88;;;;;;;2.31;51.03;93436.84;4963428;28;20023;-75
2021/01/15 04:49:10;;;;;;;7.05;5.82;;;;;;;2.39;50.71;93443.44;4965315;28;20026;-75
2021/01/15 04:51:38;;;;;;;11.90;7.90;;;;;;;2.37;50.86;93448.09;4964784;28;20113;-75
2021/01/15 04:54:04;;;;;;;7.50;6.30;;;;;;;2.39;50.84;93443.44;4959894;28;20078;-75
2021/01/15 04:56:40;;;;;;;22.17;11.63;;;;;;;2.34;50.80;93441.56;4963285;28;20102;-75
2021/01/15 04:59:07;;;;;;;7.32;5.35;;;;;;;2.32;50.46;93450.66;4962427;28;20045;-75
2021/01/15 05:01:37;;;;;;;24.05;11.55;;;;;;;2.39;50.78;93457.28;4962285;28;20075;-75
2021/01/15 05:04:08;;;;;;;14.90;8.85;;;;;;;2.34;50.47;93453.81;4962941;28;20583;-75
2021/01/15 05:06:48;;;;;;;21.33;10.10;;;;;;;2.38;50.74;93454.91;4960262;28;20085;-75
2021/01/15 05:09:18;;;;;;;26.45;12.32;;;;;;;2.40;50.63;93463.25;4963043;28;20030;-74
2021/01/15 05:11:44;;;;;;;21.08;11.30;;;;;;;2.37;50.65;93468.97;4964355;28;20031;-75
2021/01/15 05:14:15;;;;;;;13.27;8.07;;;;;;;2.32;50.62;93471.53;4961606;28;20047;-75
2021/01/15 05:16:42;;;;;;;11.93;7.90;;;;;;;2.35;50.66;93457.97;4961734;28;20392;-76
2021/01/15 05:19:09;;;;;;;18.65;9.82;;;;;;;2.37;50.84;93469.75;4966313;28;20045;-76
2021/01/15 05:21:36;;;;;;;7.70;6.30;;;;;;;2.34;50.95;93466.84;4964026;28;20035;-75
2021/01/15 05:24:03;;;;;;;8.35;6.30;;;;;;;2.38;50.88;93480.97;4958576;28;20043;-76
2021/01/15 05:26:28;;;;;;;9.60;6.28;;;;;;;2.36;50.73;93478.59;4962392;28;20073;-75
2021/01/15 05:28:54;;;;;;;11.80;7.43;;;;;;;2.47;50.90;93474.28;4959307;28;20046;-76
2021/01/15 05:31:22;;;;;;;7.80;5.70;;;;;;;2.45;50.76;93473.72;4964017;28;20047;-77
2021/01/15 05:34:07;;;;;;;15.93;9.25;;;;;;;2.46;50.77;93483.13;4962968;28;20109;-76
2021/01/15 05:36:35;;;;;;;14.97;8.43;;;;;;;2.45;50.58;93486.78;4973838;28;20046;-76
2021/01/15 05:39:08;;;;;;;9.23;6.95;;;;;;;2.59;50.52;93493.19;4957644;28;20101;-76
2021/01/15 05:41:34;;;;;;;7.50;6.53;;;;;;;2.54;50.16;93487.94;4957564;28;20454;-76
2021/01/15 05:44:01;;;;;;;8.27;6.32;;;;;;;2.48;50.05;93479.25;4959312;28;20058;-76
2021/01/15 05:46:26;;;;;;;7.63;5.82;;;;;;;2.56;50.01;93483.22;4963365;28;20668;-76
2021/01/15 05:48:54;;;;;;;10.95;7.90;;;;;;;2.44;49.92;93485.22;4959769;28;20633;-76
2021/01/15 05:51:34;;;;;;;16.88;11.02;;;;;;;2.46;50.14;93494.34;4965802;28;20053;-76
2021/01/15 05:54:01;;;;;;;8.35;6.80;;;;;;;2.36;50.57;93483.03;4957176;28;20111;-76
2021/01/15 05:56:43;;;;;;;9.23;7.43;;;;;;;2.50;50.16;93507.69;4963155;28;20030;-76
2021/01/15 05:59:16;;;;;;;10.32;8.95;;;;;;;2.50;50.01;93520.72;4960156;28;20165;-76
2021/01/15 06:01:57;;;;;;;11.25;10.15;;;;;;;2.57;49.79;93523.94;4959058;28;20039;-78
2021/01/15 06:04:31;;;;;;;6.65;5.80;;;;;;;2.52;49.59;93519.47;4963668;28;20093;-76
2021/01/15 06:07:20;;;;;;;7.30;6.03;;;;;;;2.54;49.72;93532.25;4965089;28;20510;-76
2021/01/15 06:09:48;;;;;;;5.90;5.30;;;;;;;2.62;49.43;93526.59;4956029;28;20518;-76
2021/01/15 06:12:16;;;;;;;8.05;5.95;;;;;;;2.60;49.15;93529.44;4961867;28;20541;-77
2021/01/15 06:14:57;;;;;;;7.43;6.72;;;;;;;2.63;49.47;93533.41;4963851;28;20232;-76
2021/01/15 06:17:27;;;;;;;8.32;6.05;;;;;;;2.66;49.16;93519.84;4962909;28;20054;-77
2021/01/15 06:19:59;;;;;;;6.57;5.97;;;;;;;2.81;48.95;93543.50;4963056;28;20050;-76
2021/01/15 06:22:49;;;;;;;9.85;6.03;;;;;;;2.83;49.06;93546.66;4959270;28;20281;-76
2021/01/15 06:25:23;;;;;;;8.43;5.95;;;;;;;2.80;49.08;93548.94;4958188;28;20055;-76
2021/01/15 06:27:55;;;;;;;7.47;5.70;;;;;;;2.81;48.81;93553.94;4964941;28;20042;-76
2021/01/15 06:30:23;;;;;;;8.15;6.07;;;;;;;2.81;49.17;93550.53;4964479;28;20337;-76
2021/01/15 06:32:49;;;;;;;7.70;6.18;;;;;;;2.82;49.08;93539.84;4957850;28;20125;-77
2021/01/15 06:35:28;;;;;;;10.32;6.72;;;;;;;3.00;49.20;93556.97;4964908;28;20085;-76
2021/01/15 06:38:03;;;;;;;11.68;8.45;;;;;;;3.00;49.14;93556.97;4962470;28;20508;-77
2021/01/15 06:40:49;;;;;;;10.27;6.57;;;;;;;3.01;48.91;93572.38;4969856;28;21170;-77
2021/01/15 06:43:34;;;;;;;11.57;7.82;;;;;;;2.96;48.85;93574.94;4964864;28;20061;-76
2021/01/15 06:46:04;;;;;;;10.55;7.60;;;;;;;2.87;48.92;93575.66;4967049;28;20169;-76
2021/01/15 06:48:39;;;;;;;11.27;9.93;;;;;;;2.79;48.64;93574.25;4962135;28;20047;-76
2021/01/15 06:51:06;;;;;;;10.70;8.93;;;;;;;2.92;48.89;93580.91;4977777;28;20047;-76
2021/01/15 06:53:33;;;;;;;7.95;7.13;;;;;;;2.91;48.63;93590.56;4966521;28;20039;-76
2021/01/15 06:56:01;;;;;;;12.30;9.25;;;;;;;3.01;48.84;93598.50;4966694;28;20173;-76
2021/01/15 06:58:29;;;;;;;11.52;8.85;;;;;;;3.01;48.81;93595.88;4964379;28;20015;-76
2021/01/15 07:01:17;;;;;;;15.38;10.98;;;;;;;2.94;48.92;93608.31;4980663;28;20185;-76
2021/01/15 07:04:07;;;;;;;15.95;12.23;;;;;;;2.99;48.91;93608.38;4964904;28;20054;-76
2021/01/15 07:06:34;;;;;;;19.38;14.13;;;;;;;3.05;48.74;93607.41;4973925;28;20602;-76
2021/01/15 07:09:04;;;;;;;17.80;12.85;;;;;;;3.03;48.58;93613.88;4955096;28;20411;-76
2021/01/15 07:11:30;;;;;;;20.70;14.68;;;;;;;3.02;48.84;93607.91;4960920;28;21181;-77
2021/01/15 07:14:02;;;;;;;19.60;12.95;;;;;;;3.00;48.98;93604.75;4962946;28;20038;-76
2021/01/15 07:16:33;;;;;;;14.20;10.75;;;;;;;3.14;48.82;93617.38;4959831;28;20021;-76
2021/01/15 07:19:05;;;;;;;10.95;8.90;;;;;;;3.25;48.38;93626.91;4978629;28;20054;-76
2021/01/15 07:21:37;;;;;;;13.35;10.93;;;;;;;3.30;48.58;93634.78;4957025;28;20141;-76
2021/01/15 07:24:10;;;;;;;14.73;9.73;;;;;;;3.34;48.27;93636.66;4953672;28;23974;-76
2021/01/15 07:26:40;;;;;;;13.02;8.68;;;;;;;3.43;48.65;93644.81;4959810;28;20053;-76
2021/01/15 07:29:10;;;;;;;14.13;10.70;;;;;;;3.43;48.21;93640.38;4963650;28;20061;-76
2021/01/15 07:31:41;;;;;;;10.07;7.15;;;;;;;3.47;47.81;93638.06;4959439;28;20593;-76
2021/01/15 07:34:14;;;;;;;15.52;10.40;;;;;;;3.62;47.75;93637.41;4964566;28;20031;-76
2021/01/15 07:36:40;;;;;;;41.63;24.70;;;;;;;3.74;47.36;93644.06;4961728;28;20078;-76
2021/01/15 07:39:13;;;;;;;20.77;13.27;;;;;;;3.78;47.18;93646.94;4959661;28;20566;-76
2021/01/15 07:41:39;;;;;;;18.67;12.20;;;;;;;3.82;47.05;93653.25;4960318;28;20042;-76
2021/01/15 07:44:27;;;;;;;25.42;15.95;;;;;;;3.88;46.96;93660.88;4959741;28;20621;-76
2021/01/15 07:46:57;;;;;;;29.92;21.73;;;;;;;3.85;46.84;93658.78;4963014;28;20035;-76
2021/01/15 07:49:23;;;;;;;22.75;14.80;;;;;;;3.99;46.79;93653.91;4974926;28;20026;-76
2021/01/15 07:52:04;;;;;;;27.77;20.23;;;;;;;4.16;46.60;93659.75;4962742;28;20077;-76
2021/01/15 07:54:51;;;;;;;19.83;13.20;;;;;;;4.16;46.00;93653.75;4958566;28;20050;-76
2021/01/15 07:57:20;;;;;;;22.08;13.57;;;;;;;4.24;46.17;93648.06;4961079;28;20035;-75
2021/01/15 07:59:46;;;;;;;12.10;8.90;;;;;;;4.39;45.89;93653.38;4957617;28;20639;-76
2021/01/15 08:02:15;;;;;;;10.88;8.35;;;;;;;4.38;46.02;93653.63;4962840;28;20035;-76
2021/01/15 08:04:41;;;;;;;10.10;7.78;;;;;;;4.47;45.58;93665.97;4960208;28;20077;-76
2021/01/15 08:07:06;;;;;;;7.97;6.38;;;;;;;4.61;45.40;93666.28;4965608;28;20030;-76
2021/01/15 08:09:42;;;;;;;7.68;6.00;;;;;;;4.80;45.11;93670.84;4960492;28;20047;-76
2021/01/15 08:12:08;;;;;;;11.98;6.53;;;;;;;4.89;45.07;93663.28;4974881;28;20057;-76
2021/01/15 08:14:34;;;;;;;8.80;6.90;;;;;;;4.99;45.14;93667.75;4965033;28;20035;-76
2021/01/15 08:17:00;;;;;;;7.22;5.93;;;;;;;5.00;44.88;93680.59;4956690;28;20075;-75
2021/01/15 08:19:26;;;;;;;8.32;6.22;;;;;;;4.96;44.68;93668.28;4964550;28;20077;-76
2021/01/15 08:21:53;;;;;;;8.57;6.57;;;;;;;5.02;44.63;93667.25;4961160;28;20519;-76
2021/01/15 08:24:19;;;;;;;7.78;6.22;;;;;;;5.03;44.30;93668.84;4956507;28;20043;-76
2021/01/15 08:26:55;;;;;;;9.85;7.28;;;;;;;5.04;44.70;93659.91;4957770;28;20054;-76
2021/01/15 08:29:23;;;;;;;9.48;7.50;;;;;;;5.16;44.06;93670.97;4962806;28;20499;-77
2021/01/15 08:31:50;;;;;;;9.93;6.97;;;;;;;5.06;43.74;93673.56;4962225;28;20105;-76
2021/01/15 08:34:17;;;;;;;11.07;8.38;;;;;;;4.91;43.86;93683.97;4960973;28;20030;-76
2021/01/15 08:36:57;;;;;;;11.25;8.23;;;;;;;5.00;44.26;93685.06;4964626;28;20481;-76
2021/01/15 08:39:23;;;;;;;10.52;8.05;;;;;;;4.92;43.94;93688.16;4959912;28;20067;-77
2021/01/15 08:41:56;;;;;;;9.23;6.20;;;;;;;4.96;44.32;93691.84;4960767;28;20130;-75
2021/01/15 08:44:23;;;;;;;10.70;7.13;;;;;;;4.97;43.77;93681.13;4961406;28;20185;-74
2021/01/15 08:46:50;;;;;;;11.43;8.18;;;;;;;5.00;43.98;93692.91;4960329;28;20089;-75
2021/01/15 08:49:16;;;;;;;13.20;8.40;;;;;;;4.92;44.55;93686.34;4957193;28;20029;-75
2021/01/15 08:51:47;;;;;;;6.50;5.72;;;;;;;4.88;44.36;93680.03;4962981;28;20039;-75
2021/01/15 08:54:13;;;;;;;6.65;5.78;;;;;;;4.84;44.31;93688.66;4976737;28;20455;-76
2021/01/15 08:56:43;;;;;;;10.70;8.07;;;;;;;4.92;44.43;93693.41;4959988;28;20099;-75
2021/01/15 08:59:28;;;;;;;11.32;6.68;;;;;;;5.08;44.17;93685.34;4960715;28;20039;-75
2021/01/15 09:01:56;;;;;;;10.82;9.40;;;;;;;5.17;44.06;93680.41;4959096;28;20065;-75
2021/01/15 09:04:26;;;;;;;9.85;7.97;;;;;;;5.18;43.75;93667.03;4964936;28;20023;-75
2021/01/15 09:06:53;;;;;;;13.25;9.18;;;;;;;5.32;43.34;93677.84;4958596;28;20050;-75
2021/01/15 09:09:21;;;;;;;12.02;8.20;;;;;;;5.44;43.44;93675.75;4963021;28;20892;-75
2021/01/15 09:11:49;;;;;;;12.88;9.27;;;;;;;5.56;43.11;93667.66;4959161;28;20125;-75
2021/01/15 09:14:19;;;;;;;9.80;7.72;;;;;;;5.60;42.95;93659.00;4964085;28;20092;-75
2021/01/15 09:16:47;;;;;;;6.72;6.13;;;;;;;5.48;42.37;93668.94;4961795;28;20081;-75
2021/01/15 09:19:12;;;;;;;7.20;6.07;;;;;;;5.37;42.31;93656.88;4963967;28;20020;-75
2021/01/15 09:22:01;;;;;;;7.45;6.10;;;;;;;5.35;42.18;93651.09;4948867;28;20049;-75
2021/01/15 09:24:30;;;;;;;7.65;6.85;;;;;;;5.56;42.28;93663.19;4959205;28;20065;-75
2021/01/15 09:27:01;;;;;;;13.57;8.52;;;;;;;5.68;42.45;93661.09;4961486;28;20427;-75
2021/01/15 09:29:27;;;;;;;10.43;7.97;;;;;;;5.82;41.93;93656.13;4959691;28;20035;-75
2021/01/15 09:31:53;;;;;;;6.75;6.03;;;;;;;5.95;41.59;93658.28;4961702;28;20046;-75
2021/01/15 09:34:20;;;;;;;9.70;7.03;;;;;;;6.09;41.59;93651.44;4961175;28;20100;-75
2021/01/15 09:36:47;;;;;;;10.80;6.80;;;;;;;6.23;40.96;93649.06;4964298;28;20526;-74
2021/01/15 09:39:15;;;;;;;13.57;8.05;;;;;;;6.28;40.88;93635.94;4954915;28;20072;-74
2021/01/15 09:41:47;;;;;;;8.18;6.47;;;;;;;6.44;40.64;93645.34;4963958;28;20838;-75
2021/01/15 09:44:14;;;;;;;10.90;7.95;;;;;;;6.45;40.32;93633.03;4959152;28;20047;-73
2021/01/15 09:46:40;;;;;;;10.50;8.10;;;;;;;6.64;40.18;93648.97;4962641;28;20069;-74
2021/01/15 09:49:06;;;;;;;7.25;6.20;;;;;;;6.90;39.90;93650.44;4960162;28;20598;-74
2021/01/15 09:51:31;;;;;;;8.25;6.65;;;;;;;7.12;38.62;93645.63;4956502;28;20503;-73
2021/01/15 09:53:58;;;;;;;8.90;7.60;;;;;;;7.25;38.78;93642.41;4943432;28;20046;-74
2021/01/15 09:56:29;;;;;;;7.90;7.00;;;;;;;7.33;38.30;93644.44;4954266;28;20538;-74
2021/01/15 09:58:59;;;;;;;13.95;10.00;;;;;;;7.48;38.66;93645.44;4978404;28;20454;-75
2021/01/15 10:01:26;;;;;;;15.77;10.70;;;;;;;7.56;38.25;93644.84;4960135;28;20061;-73
2021/01/15 10:03:58;;;;;;;7.97;6.88;;;;;;;7.60;37.67;93640.63;4963220;28;20362;-74
2021/01/15 10:06:27;;;;;;;7.47;6.50;;;;;;;7.91;37.98;93628.81;4955116;28;20097;-74
2021/01/15 10:08:54;;;;;;;12.15;9.10;;;;;;;8.10;37.68;93621.81;4950801;28;21197;-74
2021/01/15 10:11:28;;;;;;;9.25;7.53;;;;;;;8.11;37.66;93609.44;4946772;28;20054;-75
2021/01/15 10:13:59;;;;;;;7.63;6.38;;;;;;;8.39;37.05;93621.84;4956666;28;20848;-75
2021/01/15 10:16:25;;;;;;;9.68;7.15;;;;;;;8.53;36.55;93614.06;4960063;28;20057;-75
2021/01/15 10:18:52;;;;;;;13.30;9.68;;;;;;;8.60;37.09;93619.78;4958223;28;20046;-75
2021/01/15 10:21:22;;;;;;;7.72;6.00;;;;;;;8.75;36.02;93601.16;4961227;28;20499;-75
2021/01/15 10:23:48;;;;;;;10.32;7.80;;;;;;;8.90;35.40;93608.09;4955588;28;20156;-74
2021/01/15 10:26:24;;;;;;;21.58;13.88;;;;;;;9.03;36.33;93600.28;4954844;28;20074;-75
2021/01/15 10:28:56;;;;;;;14.40;10.38;;;;;;;9.15;35.33;93591.94;4957419;28;20074;-74
2021/01/15 10:31:23;;;;;;;9.52;7.00;;;;;;;9.39;35.29;93583.97;4966771;28;20491;-75
2021/01/15 10:33:48;;;;;;;13.40;7.53;;;;;;;9.43;35.57;93590.28;4952123;28;20077;-74
2021/01/15 10:36:14;;;;;;;6.18;5.40;;;;;;;9.16;35.43;93600.66;4953036;28;20046;-75
2021/01/15 10:38:39;;;;;;;7.57;6.78;;;;;;;8.92;35.42;93600.69;4955862;28;20050;-75
2021/01/15 10:41:05;;;;;;;11.95;8.55;;;;;;;8.71;36.04;93608.03;4956968;28;20048;-75
2021/01/15 10:43:31;;;;;;;8.68;7.65;;;;;;;8.62;36.55;93599.19;4956310;28;20027;-75
2021/01/15 10:45:56;;;;;;;12.75;7.82;;;;;;;8.51;35.85;93589.84;4957312;28;20399;-75
2021/01/15 10:48:22;;;;;;;15.05;7.38;;;;;;;8.21;36.36;93599.59;4961258;28;20050;-74
2021/01/15 10:50:47;;;;;;;88.80;25.00;;;;;;;8.05;37.24;93595.53;4951753;28;20043;-75
2021/01/15 10:53:12;;;;;;;55.85;22.95;;;;;;;7.83;37.42;93589.94;4955952;28;20047;-74
2021/01/15 10:55:38;;;;;;;23.58;14.73;;;;;;;7.74;37.52;93596.84;4950622;28;20026;-75
2021/01/15 10:58:05;;;;;;;9.65;6.80;;;;;;;7.48;37.33;93574.44;4962327;28;20042;-74
2021/01/15 11:00:31;;;;;;;12.75;9.88;;;;;;;7.49;38.41;93591.78;4954905;28;20125;-74
2021/01/15 11:02:56;;;;;;;13.95;11.65;;;;;;;7.35;38.68;93579.25;4953131;28;20617;-73
2021/01/15 11:05:22;;;;;;;16.10;12.48;;;;;;;7.31;38.79;93572.97;4956599;28;20050;-74
2021/01/15 11:07:47;;;;;;;16.23;13.57;;;;;;;7.12;39.18;93572.06;4953088;28;20484;-73
2021/01/15 11:10:13;;;;;;;15.60;12.00;;;;;;;7.12;39.91;93585.19;4962011;28;20037;-76
2021/01/15 11:12:39;;;;;;;20.42;13.00;;;;;;;7.02;40.03;93566.84;4957063;28;20057;-73
2021/01/15 11:15:06;;;;;;;21.17;13.88;;;;;;;6.98;39.69;93557.94;4956431;28;20294;-76
2021/01/15 11:17:32;;;;;;;19.80;14.15;;;;;;;6.89;39.99;93559.59;4954093;28;20054;-76
2021/01/15 11:19:57;;;;;;;16.17;8.73;;;;;;;6.70;39.16;93569.09;4957031;28;20475;-75
2021/01/15 11:22:23;;;;;;;13.77;9.48;;;;;;;6.62;39.82;93569.69;4956630;28;20064;-76
2021/01/15 11:24:48;;;;;;;17.98;9.95;;;;;;;6.64;39.52;93568.38;4961429;28;20031;-76
2021/01/15 11:27:13;;;;;;;12.65;8.38;;;;;;;6.57;39.61;93567.06;4961046;28;20046;-75
2021/01/15 11:29:39;;;;;;;15.05;10.30;;;;;;;6.40;39.40;93555.06;4957670;28;20061;-75
2021/01/15 11:32:05;;;;;;;14.55;10.38;;;;;;;6.36;40.27;93556.63;4957199;28;20039;-76
2021/01/15 11:34:30;;;;;;;11.45;8.98;;;;;;;6.14;40.53;93561.44;4958790;28;20381;-76
2021/01/15 11:36:56;;;;;;;9.73;7.82;;;;;;;6.17;40.91;93553.03;4960331;28;20043;-75
2021/01/15 11:39:22;;;;;;;14.75;10.77;;;;;;;6.29;41.25;93556.16;4956061;28;20567;-75
2021/01/15 11:41:54;;;;;;;11.80;8.15;;;;;;;6.28;40.87;93548.53;4961017;28;20470;-76
2021/01/15 11:44:19;;;;;;;11.05;7.82;;;;;;;6.39;40.93;93561.38;4961334;28;20480;-76
2021/01/15 11:46:45;;;;;;;9.05;8.25;;;;;;;6.27;40.63;93553.00;4958216;28;20125;-75